createdAt,value
2022-12-31T00:00:18.410Z,50.5
2022-12-31T00:01:20.218Z,49.8
2022-12-31T00:02:22.250Z,49.3
2022-12-31T00:03:24.165Z,49
2022-12-31T00:04:25.156Z,48.9
2022-12-31T00:05:27.258Z,48.9
2022-12-31T00:06:29.122Z,48.9
2022-12-31T00:08:32.056Z,48.6
2022-12-31T00:09:33.051Z,48.4
2022-12-31T00:10:34.136Z,48.3
2022-12-31T00:11:36.132Z,48
2022-12-31T00:12:37.509Z,48.2
2022-12-31T00:13:39.188Z,48.4
2022-12-31T00:14:41.253Z,48.5
2022-12-31T00:15:43.275Z,48.6
2022-12-31T00:16:45.131Z,48.8
2022-12-31T00:17:47.316Z,49.1
2022-12-31T00:18:49.255Z,50.3
2022-12-31T00:19:51.058Z,51
2022-12-31T00:20:52.094Z,51.1
2022-12-31T00:21:53.048Z,50.9
2022-12-31T00:22:54.274Z,50.9
2022-12-31T00:23:56.243Z,51.2
2022-12-31T00:24:58.097Z,51.4
2022-12-31T00:25:59.175Z,51.5
2022-12-31T00:27:01.179Z,51.6
2022-12-31T00:28:03.086Z,51.8
2022-12-31T00:29:04.135Z,51.8
2022-12-31T00:30:06.183Z,51.6
2022-12-31T00:31:08.281Z,51.6
2022-12-31T00:32:09.988Z,51.5
2022-12-31T00:33:11.121Z,51.1
2022-12-31T00:34:12.195Z,51.3
2022-12-31T00:35:14.263Z,51.4
2022-12-31T00:36:16.560Z,51.4
2022-12-31T00:37:18.249Z,50.6
2022-12-31T00:38:20.336Z,49.8
2022-12-31T00:39:22.215Z,49.6
2022-12-31T00:40:24.357Z,49.4
2022-12-31T00:41:26.177Z,49.1
2022-12-31T00:42:28.292Z,48.9
2022-12-31T00:43:30.341Z,48.8
2022-12-31T00:44:32.164Z,48.8
2022-12-31T00:45:34.182Z,48.8
2022-12-31T00:47:37.115Z,48.8
2022-12-31T00:48:38.135Z,48.8
2022-12-31T00:49:39.134Z,48.9
2022-12-31T00:50:40.253Z,48.8
2022-12-31T00:51:42.164Z,48.5
2022-12-31T00:52:44.275Z,48.1
2022-12-31T00:53:46.137Z,48.1
2022-12-31T00:54:47.490Z,48.4
2022-12-31T00:55:49.315Z,48.5
2022-12-31T00:56:51.108Z,48.6
2022-12-31T00:57:53.281Z,48.7
2022-12-31T00:58:55.175Z,48.5
2022-12-31T00:59:57.117Z,48.5
2022-12-31T01:00:58.294Z,48.5
2022-12-31T01:02:00.530Z,48.5
2022-12-31T01:03:02.249Z,48.4
2022-12-31T01:04:04.307Z,48.4
2022-12-31T01:05:06.208Z,48.4
2022-12-31T01:06:08.277Z,48.1
2022-12-31T01:07:10.396Z,47.9
2022-12-31T01:08:12.193Z,47.8
2022-12-31T01:09:14.474Z,47.6
2022-12-31T01:10:16.435Z,47.3
2022-12-31T01:11:18.173Z,47
2022-12-31T01:12:20.363Z,46.4
2022-12-31T01:13:22.879Z,46.7
2022-12-31T01:14:24.238Z,46.8
2022-12-31T01:15:26.284Z,46.6
2022-12-31T01:16:28.338Z,46.7
2022-12-31T01:17:30.255Z,46.5
2022-12-31T01:18:32.215Z,46.5
2022-12-31T01:19:34.375Z,46.5
2022-12-31T01:20:36.382Z,46.5
2022-12-31T01:21:39.009Z,46.8
2022-12-31T01:22:40.362Z,46.9
2022-12-31T01:23:42.399Z,47
2022-12-31T01:24:44.154Z,47.1
2022-12-31T01:25:45.318Z,47.3
2022-12-31T01:26:47.295Z,47.4
2022-12-31T01:27:49.339Z,47.4
2022-12-31T01:28:51.239Z,47.6
2022-12-31T01:29:53.261Z,47.8
2022-12-31T01:30:55.162Z,47.9
2022-12-31T01:31:56.240Z,47.8
2022-12-31T01:32:58.179Z,47.7
2022-12-31T01:34:00.278Z,47.7
2022-12-31T01:35:02.541Z,47.7
2022-12-31T01:36:04.357Z,47.9
2022-12-31T01:37:06.114Z,47.9
2022-12-31T01:38:07.176Z,48.1
2022-12-31T01:39:09.227Z,48.1
2022-12-31T01:40:11.298Z,48.2
2022-12-31T01:41:13.376Z,48.4
2022-12-31T01:42:15.497Z,48.4
2022-12-31T01:43:17.555Z,48.2
2022-12-31T01:44:19.357Z,48.2
2022-12-31T01:45:21.517Z,48.1
2022-12-31T01:46:23.441Z,47.9
2022-12-31T01:47:25.238Z,48
2022-12-31T01:48:27.565Z,48.4
2022-12-31T01:49:29.292Z,48.7
2022-12-31T01:50:31.454Z,48.8
2022-12-31T01:51:33.492Z,49
2022-12-31T01:52:35.255Z,49.2
2022-12-31T01:53:40.682Z,49.5
2022-12-31T01:54:39.179Z,49.6
2022-12-31T01:55:41.623Z,49.6
2022-12-31T01:56:43.437Z,49.7
2022-12-31T01:57:45.395Z,49.9
2022-12-31T01:58:47.157Z,49
2022-12-31T01:59:48.201Z,49.9
2022-12-31T02:00:50.460Z,50.5
2022-12-31T02:01:52.445Z,50.8
2022-12-31T02:02:54.785Z,50.8
2022-12-31T02:06:54.553Z,50.2
2022-12-31T02:07:56.257Z,50.4
2022-12-31T02:08:58.273Z,50.6
2022-12-31T02:10:00.302Z,50.7
2022-12-31T02:11:02.392Z,50.7
2022-12-31T02:12:04.161Z,50.3
2022-12-31T02:13:05.157Z,50.4
2022-12-31T02:14:06.169Z,50.5
2022-12-31T02:15:07.267Z,50.7
2022-12-31T02:16:09.271Z,50.7
2022-12-31T02:17:11.504Z,50.8
2022-12-31T02:18:13.438Z,50.9
2022-12-31T02:19:15.393Z,51.1
2022-12-31T02:20:17.357Z,51.2
2022-12-31T02:21:19.174Z,51.3
2022-12-31T02:22:20.125Z,51.3
2022-12-31T02:23:21.367Z,51.1
2022-12-31T02:24:23.353Z,51.1
2022-12-31T02:25:25.194Z,51.2
2022-12-31T02:26:26.194Z,51
2022-12-31T02:27:28.313Z,50.8
2022-12-31T02:28:30.313Z,50.6
2022-12-31T02:29:32.276Z,50.7
2022-12-31T02:30:34.421Z,50.7
2022-12-31T02:31:36.355Z,50.6
2022-12-31T02:32:38.233Z,50.4
2022-12-31T02:33:40.171Z,50.4
2022-12-31T02:34:41.196Z,50.3
2022-12-31T02:35:43.353Z,50.3
2022-12-31T02:36:45.381Z,50.3
2022-12-31T02:37:47.213Z,50.4
2022-12-31T02:38:49.293Z,50.7
2022-12-31T02:39:51.236Z,50.9
2022-12-31T02:40:53.475Z,51
2022-12-31T02:41:55.168Z,50.8
2022-12-31T02:42:56.159Z,50.7
2022-12-31T02:43:57.275Z,50.5
2022-12-31T02:44:59.167Z,50.5
2022-12-31T02:46:00.196Z,50.4
2022-12-31T02:47:01.231Z,50.3
2022-12-31T02:48:03.217Z,50.2
2022-12-31T02:49:05.235Z,50
2022-12-31T02:50:07.232Z,49.9
2022-12-31T02:51:09.214Z,49.9
2022-12-31T02:52:11.176Z,49.9
2022-12-31T02:53:12.213Z,49.8
2022-12-31T02:54:14.346Z,49.6
2022-12-31T02:55:16.415Z,49.5
2022-12-31T02:56:18.236Z,49.3
2022-12-31T02:57:20.381Z,49.1
2022-12-31T02:58:22.351Z,48.9
2022-12-31T02:59:24.318Z,48.8
2022-12-31T03:00:26.403Z,48.8
2022-12-31T03:01:28.495Z,48.9
2022-12-31T03:02:30.319Z,49
2022-12-31T03:03:31.187Z,49.1
2022-12-31T03:04:32.329Z,49.1
2022-12-31T03:05:34.170Z,49.2
2022-12-31T03:06:35.335Z,49.1
2022-12-31T03:07:37.237Z,49.1
2022-12-31T03:08:39.156Z,49
2022-12-31T03:09:40.237Z,48.2
2022-12-31T03:10:42.314Z,48.6
2022-12-31T03:11:44.447Z,48.8
2022-12-31T03:12:46.216Z,48.6
2022-12-31T03:13:48.222Z,48.6
2022-12-31T03:14:50.293Z,48.7
2022-12-31T03:15:52.454Z,48.2
2022-12-31T03:16:54.707Z,48.4
2022-12-31T03:17:56.215Z,48.3
2022-12-31T03:18:58.147Z,48.1
2022-12-31T03:19:59.158Z,48
2022-12-31T03:21:00.197Z,48.1
2022-12-31T03:22:01.334Z,48
2022-12-31T03:23:03.204Z,48.1
2022-12-31T03:24:04.234Z,48.2
2022-12-31T03:25:06.177Z,48.2
2022-12-31T03:26:07.274Z,48.2
2022-12-31T03:27:09.251Z,48.5
2022-12-31T03:28:11.300Z,48.6
2022-12-31T03:29:13.199Z,48.6
2022-12-31T03:30:14.300Z,48.7
2022-12-31T03:31:16.587Z,48.6
2022-12-31T03:32:18.387Z,48.5
2022-12-31T03:33:20.239Z,48.4
2022-12-31T03:34:22.415Z,48.2
2022-12-31T03:35:24.294Z,48.1
2022-12-31T03:36:26.303Z,47.9
2022-12-31T03:37:28.395Z,48
2022-12-31T03:38:30.454Z,47.9
2022-12-31T03:39:32.270Z,48
2022-12-31T03:40:34.714Z,47.9
2022-12-31T03:41:36.273Z,47.9
2022-12-31T03:42:38.181Z,47.8
2022-12-31T03:43:39.252Z,47.8
2022-12-31T03:44:41.255Z,47.9
2022-12-31T03:45:43.292Z,48
2022-12-31T03:46:45.376Z,47.9
2022-12-31T03:47:47.279Z,47.8
2022-12-31T03:48:49.264Z,47.7
2022-12-31T03:49:51.249Z,47.6
2022-12-31T03:50:53.274Z,47.6
2022-12-31T03:51:55.334Z,47.7
2022-12-31T03:52:57.255Z,47.9
2022-12-31T03:53:59.416Z,47.7
2022-12-31T03:55:01.234Z,47.8
2022-12-31T03:56:03.291Z,48
2022-12-31T03:57:05.354Z,48
2022-12-31T03:58:07.277Z,48.1
2022-12-31T03:59:09.342Z,48.1
2022-12-31T04:00:11.262Z,48.3
2022-12-31T04:01:13.574Z,48.4
2022-12-31T04:02:15.533Z,48.5
2022-12-31T04:03:17.609Z,48.6
2022-12-31T04:04:19.480Z,47.9
2022-12-31T04:05:21.197Z,48.4
2022-12-31T04:06:22.122Z,48.5
2022-12-31T04:07:23.275Z,48.5
2022-12-31T04:08:25.278Z,48.5
2022-12-31T04:09:27.266Z,48.9
2022-12-31T04:10:29.395Z,49.2
2022-12-31T04:11:31.476Z,49.4
2022-12-31T04:12:33.337Z,49.5
2022-12-31T04:13:35.336Z,49.5
2022-12-31T04:14:37.277Z,49.7
2022-12-31T04:15:39.315Z,49.4
2022-12-31T04:16:41.271Z,49.7
2022-12-31T04:17:43.493Z,49.9
2022-12-31T04:18:45.420Z,49.4
2022-12-31T04:19:47.297Z,50
2022-12-31T04:20:49.290Z,50
2022-12-31T04:21:51.330Z,50
2022-12-31T04:22:53.645Z,49.8
2022-12-31T04:23:55.238Z,49.5
2022-12-31T04:24:56.236Z,49.2
2022-12-31T04:25:57.242Z,49
2022-12-31T04:27:02.185Z,49
2022-12-31T04:28:00.255Z,49.1
2022-12-31T04:29:02.415Z,49.2
2022-12-31T04:30:04.344Z,49.2
2022-12-31T04:31:06.435Z,49
2022-12-31T04:32:08.289Z,48.4
2022-12-31T04:33:09.315Z,49
2022-12-31T04:34:11.337Z,49.3
2022-12-31T04:35:13.338Z,49.1
2022-12-31T04:36:15.364Z,49.4
2022-12-31T04:37:17.398Z,49.6
2022-12-31T04:38:19.552Z,49.7
2022-12-31T04:39:21.301Z,49.7
2022-12-31T04:40:23.300Z,49.6
2022-12-31T04:41:25.814Z,49.6
2022-12-31T04:42:27.454Z,49.5
2022-12-31T04:43:29.879Z,49.6
2022-12-31T04:44:31.356Z,49.7
2022-12-31T04:45:33.487Z,49.6
2022-12-31T04:46:35.297Z,49.6
2022-12-31T04:47:37.341Z,49.7
2022-12-31T04:48:39.288Z,49.8
2022-12-31T04:49:41.416Z,50.1
2022-12-31T04:50:48.535Z,50.4
2022-12-31T04:51:50.276Z,50.6
2022-12-31T04:52:52.404Z,49.9
2022-12-31T04:53:54.320Z,50.6
2022-12-31T04:54:56.316Z,50.1
2022-12-31T04:55:58.277Z,50.3
2022-12-31T04:57:00.415Z,50.3
2022-12-31T04:58:02.335Z,50.2
2022-12-31T04:59:04.515Z,50.2
2022-12-31T05:00:06.604Z,50.4
2022-12-31T05:01:08.365Z,50.7
2022-12-31T05:02:10.468Z,50.8
2022-12-31T05:03:12.310Z,50.8
2022-12-31T05:04:14.282Z,50.7
2022-12-31T05:05:16.479Z,50.8
2022-12-31T05:06:18.335Z,50.9
2022-12-31T05:07:20.398Z,51.5
2022-12-31T05:08:22.282Z,51.7
2022-12-31T05:09:24.335Z,52
2022-12-31T05:10:26.262Z,51.8
2022-12-31T05:11:27.285Z,52
2022-12-31T05:12:29.400Z,52.1
2022-12-31T05:13:33.446Z,52.3
2022-12-31T05:14:32.297Z,52.5
2022-12-31T05:15:34.295Z,52.7
2022-12-31T05:16:36.366Z,52.8
2022-12-31T05:17:38.356Z,52.9
2022-12-31T05:18:40.315Z,53
2022-12-31T05:19:42.327Z,53.1
2022-12-31T05:20:44.450Z,52.7
2022-12-31T05:21:46.436Z,52.8
2022-12-31T05:22:48.216Z,53
2022-12-31T05:23:49.186Z,53.1
2022-12-31T05:24:50.211Z,52.8
2022-12-31T05:25:51.384Z,52.8
2022-12-31T05:26:53.344Z,53
2022-12-31T05:27:55.284Z,53
2022-12-31T05:28:57.328Z,53.2
2022-12-31T05:29:59.277Z,53.3
2022-12-31T05:31:00.321Z,53.5
2022-12-31T05:32:02.096Z,53.5
2022-12-31T05:33:03.592Z,53.3
2022-12-31T05:34:05.302Z,53.1
2022-12-31T05:35:07.353Z,52.9
2022-12-31T05:36:09.279Z,52.8
2022-12-31T05:37:10.235Z,52.8
2022-12-31T05:38:11.315Z,52.7
2022-12-31T05:39:13.590Z,52.7
2022-12-31T05:40:15.337Z,52.7
2022-12-31T05:41:17.355Z,52.7
2022-12-31T05:42:19.335Z,52.7
2022-12-31T05:43:21.247Z,52.7
2022-12-31T05:44:22.315Z,52.6
2022-12-31T05:45:30.275Z,52.7
2022-12-31T05:46:26.402Z,53
2022-12-31T05:47:28.335Z,53.2
2022-12-31T05:48:30.378Z,53.2
2022-12-31T05:49:32.635Z,53.1
2022-12-31T05:50:34.453Z,53.3
2022-12-31T05:51:36.447Z,53.6
2022-12-31T05:52:38.955Z,53.6
2022-12-31T05:53:40.578Z,53.8
2022-12-31T05:54:42.420Z,53.9
2022-12-31T05:55:44.417Z,54
2022-12-31T05:56:46.458Z,53.9
2022-12-31T05:57:48.444Z,53.7
2022-12-31T05:58:50.608Z,53.9
2022-12-31T05:59:52.596Z,54.2
2022-12-31T06:00:54.322Z,54.3
2022-12-31T06:01:56.335Z,54.6
2022-12-31T06:02:58.643Z,54.5
2022-12-31T06:04:00.583Z,54.5
2022-12-31T06:05:02.500Z,54.6
2022-12-31T06:06:04.435Z,54.7
2022-12-31T06:07:06.508Z,54.6
2022-12-31T06:08:08.296Z,54.5
2022-12-31T06:09:09.397Z,54.4
2022-12-31T06:10:11.338Z,54.2
2022-12-31T06:11:13.435Z,54.1
2022-12-31T06:12:15.474Z,54.1
2022-12-31T06:13:17.463Z,54.3
2022-12-31T06:14:19.400Z,54.6
2022-12-31T06:15:21.447Z,54.7
2022-12-31T06:16:23.545Z,54.7
2022-12-31T06:17:25.316Z,54.5
2022-12-31T06:18:27.240Z,54.4
2022-12-31T06:19:28.339Z,54.4
2022-12-31T06:20:31.286Z,54.4
2022-12-31T06:21:32.399Z,54.5
2022-12-31T06:22:34.348Z,54.6
2022-12-31T06:23:36.510Z,54.6
2022-12-31T06:24:38.336Z,54.7
2022-12-31T06:25:40.429Z,54.5
2022-12-31T06:26:42.335Z,54.4
2022-12-31T06:27:44.325Z,54.3
2022-12-31T06:28:46.293Z,54.3
2022-12-31T06:29:48.357Z,54.5
2022-12-31T06:30:50.453Z,54.7
2022-12-31T06:31:52.336Z,55.2
2022-12-31T06:32:54.317Z,55.6
2022-12-31T06:33:56.284Z,55.9
2022-12-31T06:34:57.391Z,56
2022-12-31T06:35:59.796Z,56.2
2022-12-31T06:37:01.366Z,56.3
2022-12-31T06:38:03.369Z,56.3
2022-12-31T06:39:05.417Z,55.5
2022-12-31T06:40:07.597Z,55.5
2022-12-31T06:41:09.528Z,55.4
2022-12-31T06:42:11.369Z,55.4
2022-12-31T06:43:13.475Z,55.7
2022-12-31T06:44:15.343Z,55.8
2022-12-31T06:45:17.576Z,55.8
2022-12-31T06:46:19.348Z,55.9
2022-12-31T06:47:20.333Z,56.1
2022-12-31T06:48:22.777Z,56.2
2022-12-31T06:49:24.417Z,56.3
2022-12-31T06:50:26.431Z,56.3
2022-12-31T06:51:28.475Z,56.3
2022-12-31T06:52:30.324Z,56.4
2022-12-31T06:53:31.511Z,56.5
2022-12-31T06:54:33.554Z,56.6
2022-12-31T06:55:35.266Z,56.6
2022-12-31T06:56:36.828Z,56.6
2022-12-31T06:57:38.589Z,56.8
2022-12-31T06:58:40.339Z,56.9
2022-12-31T06:59:42.378Z,57.1
2022-12-31T07:00:44.518Z,57.1
2022-12-31T07:01:46.945Z,56.8
2022-12-31T07:02:48.845Z,56.5
2022-12-31T07:03:50.339Z,56.6
2022-12-31T07:04:52.481Z,56.9
2022-12-31T07:05:54.346Z,56.9
2022-12-31T07:06:56.389Z,56.7
2022-12-31T07:07:58.334Z,56.9
2022-12-31T07:09:00.683Z,57.2
2022-12-31T07:10:02.550Z,57.3
2022-12-31T07:11:04.341Z,57.3
2022-12-31T07:12:06.295Z,57.1
2022-12-31T07:13:07.739Z,57.2
2022-12-31T07:14:09.415Z,57.3
2022-12-31T07:15:11.354Z,57.4
2022-12-31T07:16:13.453Z,57.5
2022-12-31T07:17:15.399Z,57.5
2022-12-31T07:18:17.498Z,57.5
2022-12-31T07:19:19.392Z,57.4
2022-12-31T07:20:21.378Z,57.2
2022-12-31T07:21:23.438Z,57.1
2022-12-31T07:22:25.405Z,57
2022-12-31T07:23:27.388Z,57
2022-12-31T07:24:29.345Z,56.7
2022-12-31T07:25:30.475Z,56.9
2022-12-31T07:26:32.577Z,56.8
2022-12-31T07:27:34.375Z,57
2022-12-31T07:28:36.537Z,57
2022-12-31T07:29:38.395Z,57.2
2022-12-31T07:30:40.444Z,57.2
2022-12-31T07:31:42.401Z,57.1
2022-12-31T07:32:44.335Z,56.7
2022-12-31T07:33:45.360Z,56.4
2022-12-31T07:34:47.536Z,56.4
2022-12-31T07:35:49.365Z,56.5
2022-12-31T07:36:51.496Z,56.4
2022-12-31T07:37:53.517Z,56.5
2022-12-31T07:38:55.498Z,56.5
2022-12-31T07:39:57.379Z,56.7
2022-12-31T07:41:01.612Z,56.7
2022-12-31T07:42:02.176Z,56.5
2022-12-31T07:43:03.426Z,56.3
2022-12-31T07:44:05.537Z,55.9
2022-12-31T07:45:07.422Z,56
2022-12-31T07:46:09.523Z,56.1
2022-12-31T07:47:11.480Z,56.1
2022-12-31T07:48:13.395Z,55.6
2022-12-31T07:49:15.375Z,55.9
2022-12-31T07:50:17.475Z,55.9
2022-12-31T07:51:19.475Z,56
2022-12-31T07:52:21.536Z,55.4
2022-12-31T07:53:23.552Z,55.9
2022-12-31T07:54:25.442Z,55.9
2022-12-31T07:55:27.703Z,55.8
2022-12-31T07:56:29.461Z,56
2022-12-31T07:57:31.503Z,55.9
2022-12-31T07:58:33.537Z,56.1
2022-12-31T07:59:35.355Z,56.2
2022-12-31T08:00:37.440Z,56.3
2022-12-31T08:01:39.644Z,56.4
2022-12-31T08:02:41.495Z,56.3
2022-12-31T08:03:43.376Z,56.1
2022-12-31T08:04:45.381Z,56.1
2022-12-31T08:05:47.458Z,56.1
2022-12-31T08:06:49.380Z,56.1
2022-12-31T08:07:51.357Z,56
2022-12-31T08:08:52.507Z,55.8
2022-12-31T08:09:55.376Z,55.7
2022-12-31T08:10:57.937Z,55.6
2022-12-31T08:11:59.454Z,55.5
2022-12-31T08:13:01.634Z,55.5
2022-12-31T08:14:03.416Z,55.5
2022-12-31T08:15:05.555Z,55.3
2022-12-31T08:16:07.481Z,55.3
2022-12-31T08:17:09.416Z,55.3
2022-12-31T08:18:11.576Z,55.3
2022-12-31T08:19:13.455Z,55.2
2022-12-31T08:20:15.895Z,54.7
2022-12-31T08:21:17.377Z,54.7
2022-12-31T08:22:19.477Z,54.8
2022-12-31T08:23:21.329Z,54.9
2022-12-31T08:24:22.456Z,55
2022-12-31T08:25:24.628Z,54.9
2022-12-31T08:26:26.418Z,54.8
2022-12-31T08:27:28.743Z,54.6
2022-12-31T08:28:30.455Z,54.4
2022-12-31T08:29:32.342Z,54.4
2022-12-31T08:30:33.420Z,54.5
2022-12-31T08:31:35.434Z,54.7
2022-12-31T08:32:37.397Z,54.7
2022-12-31T08:33:39.417Z,54.6
2022-12-31T08:34:41.483Z,54.7
2022-12-31T08:35:43.359Z,54.8
2022-12-31T08:36:45.497Z,54.9
2022-12-31T08:37:47.513Z,54.9
2022-12-31T08:38:49.431Z,55.1
2022-12-31T08:39:51.555Z,55.2
2022-12-31T08:40:53.415Z,55.2
2022-12-31T08:41:55.346Z,55.2
2022-12-31T08:42:56.439Z,55.3
2022-12-31T08:43:58.435Z,55
2022-12-31T08:45:00.542Z,54.8
2022-12-31T08:46:02.659Z,54.8
2022-12-31T08:47:04.315Z,54.7
2022-12-31T08:48:05.435Z,54.4
2022-12-31T08:49:07.421Z,54.2
2022-12-31T08:50:09.468Z,54.6
2022-12-31T08:51:11.661Z,54.7
2022-12-31T08:52:13.402Z,54.8
2022-12-31T08:53:15.480Z,54.6
2022-12-31T08:54:17.480Z,54.4
2022-12-31T08:55:19.380Z,54.3
2022-12-31T08:56:20.515Z,54.1
2022-12-31T08:57:22.583Z,53.7
2022-12-31T08:58:24.913Z,52.9
2022-12-31T08:59:26.754Z,53.3
2022-12-31T09:00:28.649Z,53.1
2022-12-31T09:01:30.626Z,53.1
2022-12-31T09:02:32.475Z,53.1
2022-12-31T09:03:34.439Z,53.2
2022-12-31T09:04:36.677Z,52.9
2022-12-31T09:05:38.403Z,52.5
2022-12-31T09:06:40.465Z,52.4
2022-12-31T09:07:43.464Z,52.5
2022-12-31T09:08:45.581Z,52.6
2022-12-31T09:09:48.324Z,52.7
2022-12-31T09:10:50.415Z,52.8
2022-12-31T09:11:52.615Z,52.9
2022-12-31T09:12:54.482Z,52.7
2022-12-31T09:13:56.457Z,52.8
2022-12-31T09:14:58.481Z,51.8
2022-12-31T09:16:00.383Z,52.2
2022-12-31T09:17:01.455Z,52.3
2022-12-31T09:18:03.618Z,52.2
2022-12-31T09:19:05.396Z,52.3
2022-12-31T09:20:06.419Z,52.5
2022-12-31T09:21:08.456Z,52.8
2022-12-31T09:22:13.154Z,53.2
2022-12-31T09:23:14.415Z,53.4
2022-12-31T09:24:16.588Z,53.5
2022-12-31T09:25:18.587Z,53.5
2022-12-31T09:26:20.618Z,53.5
2022-12-31T09:27:27.386Z,53.5
2022-12-31T09:28:24.596Z,53.5
2022-12-31T09:29:26.424Z,53.2
2022-12-31T09:30:28.438Z,52.7
2022-12-31T09:31:30.585Z,52.4
2022-12-31T09:32:32.675Z,52.1
2022-12-31T09:33:34.836Z,51.9
2022-12-31T09:34:36.875Z,51.6
2022-12-31T09:35:39.324Z,51.5
2022-12-31T09:36:40.436Z,51.1
2022-12-31T09:37:42.521Z,51
2022-12-31T09:38:44.624Z,50.5
2022-12-31T09:39:46.532Z,50.5
2022-12-31T09:40:48.959Z,50.7
2022-12-31T09:41:50.667Z,50.5
2022-12-31T09:42:52.588Z,50.3
2022-12-31T09:43:57.441Z,50.4
2022-12-31T09:44:56.382Z,50.4
2022-12-31T09:45:57.451Z,50.9
2022-12-31T09:46:59.424Z,51.5
2022-12-31T09:48:01.512Z,51.1
2022-12-31T09:49:03.517Z,51.5
2022-12-31T09:50:05.428Z,51.7
2022-12-31T09:51:07.535Z,51.8
2022-12-31T09:52:09.561Z,51.5
2022-12-31T09:53:11.576Z,51.7
2022-12-31T09:54:13.453Z,51.9
2022-12-31T09:55:15.507Z,51.9
2022-12-31T09:56:18.523Z,51.9
2022-12-31T09:57:20.480Z,51.8
2022-12-31T09:58:22.371Z,51.8
2022-12-31T09:59:23.394Z,51.3
2022-12-31T10:00:24.426Z,51.2
2022-12-31T10:01:26.818Z,51
2022-12-31T10:02:28.860Z,50.5
2022-12-31T10:03:30.385Z,50.8
2022-12-31T10:04:31.512Z,50.9
2022-12-31T10:05:33.555Z,51
2022-12-31T10:06:35.632Z,51.1
2022-12-31T10:07:37.616Z,51
2022-12-31T10:08:39.755Z,51
2022-12-31T10:09:41.374Z,51.2
2022-12-31T10:10:42.397Z,51.3
2022-12-31T10:11:43.395Z,51.3
2022-12-31T10:12:44.312Z,51.5
2022-12-31T10:13:45.956Z,51.8
2022-12-31T10:14:47.879Z,51.9
2022-12-31T10:15:49.489Z,52
2022-12-31T10:16:51.670Z,52
2022-12-31T10:17:53.677Z,52.2
2022-12-31T10:18:55.496Z,52.2
2022-12-31T10:19:57.643Z,52.2
2022-12-31T10:20:59.617Z,52.2
2022-12-31T10:22:01.615Z,52.2
2022-12-31T10:23:03.556Z,52.2
2022-12-31T10:24:05.415Z,52.4
2022-12-31T10:25:06.476Z,52.6
2022-12-31T10:26:08.614Z,52.4
2022-12-31T10:27:11.296Z,52.9
2022-12-31T10:28:12.555Z,53
2022-12-31T10:29:14.480Z,53
2022-12-31T10:30:16.662Z,53.1
2022-12-31T10:31:18.704Z,53.1
2022-12-31T10:32:20.898Z,53.2
2022-12-31T10:33:22.495Z,52.8
2022-12-31T10:34:25.196Z,53
2022-12-31T10:35:26.336Z,53.1
2022-12-31T10:36:27.591Z,53.3
2022-12-31T10:37:29.636Z,53.4
2022-12-31T10:38:31.629Z,53.4
2022-12-31T10:39:33.659Z,53.2
2022-12-31T10:40:35.657Z,53.2
2022-12-31T10:41:37.471Z,53
2022-12-31T10:42:39.536Z,52.9
2022-12-31T10:43:41.700Z,52.8
2022-12-31T10:44:43.458Z,52.8
2022-12-31T10:45:46.006Z,52.8
2022-12-31T10:46:48.286Z,52.6
2022-12-31T10:47:49.796Z,52.4
2022-12-31T10:48:51.833Z,52.4
2022-12-31T10:49:53.513Z,52.4
2022-12-31T10:50:55.493Z,52.3
2022-12-31T10:51:57.976Z,52.3
2022-12-31T10:53:00.418Z,52.3
2022-12-31T10:54:01.506Z,52.4
2022-12-31T10:55:03.416Z,52.4
2022-12-31T10:56:04.556Z,52.1
2022-12-31T10:57:06.427Z,51.9
2022-12-31T10:58:07.537Z,51.8
2022-12-31T10:59:10.176Z,51.6
2022-12-31T11:00:11.906Z,51.4
2022-12-31T11:01:13.580Z,51.4
2022-12-31T11:02:14.716Z,51.1
2022-12-31T11:03:16.462Z,50.9
2022-12-31T11:04:18.518Z,50.6
2022-12-31T11:05:20.611Z,50.2
2022-12-31T11:06:22.485Z,50.3
2022-12-31T11:07:24.528Z,50.5
2022-12-31T11:08:26.613Z,50.5
2022-12-31T11:09:32.789Z,50.6
2022-12-31T11:10:30.557Z,50.7
2022-12-31T11:11:32.674Z,50.8
2022-12-31T11:12:34.502Z,50.7
2022-12-31T11:13:36.717Z,50.5
2022-12-31T11:14:38.385Z,50.2
2022-12-31T11:15:39.501Z,50
2022-12-31T11:16:40.447Z,49.8
2022-12-31T11:17:42.255Z,49.6
2022-12-31T11:18:43.676Z,49.4
2022-12-31T11:19:45.494Z,49.2
2022-12-31T11:20:47.555Z,48.8
2022-12-31T11:21:49.537Z,48.7
2022-12-31T11:22:51.380Z,48.3
2022-12-31T11:23:52.540Z,48.1
2022-12-31T11:24:54.576Z,48.3
2022-12-31T11:25:56.857Z,48.4
2022-12-31T11:26:58.540Z,48.5
2022-12-31T11:28:00.595Z,48.6
2022-12-31T11:29:02.792Z,48.7
2022-12-31T11:30:04.514Z,49
2022-12-31T11:31:06.651Z,49.2
2022-12-31T11:32:08.787Z,49.3
2022-12-31T11:33:10.636Z,49.2
2022-12-31T11:34:12.658Z,49.2
2022-12-31T11:35:14.714Z,49.1
2022-12-31T11:36:16.714Z,48.7
2022-12-31T11:37:18.490Z,48.6
2022-12-31T11:38:20.618Z,48.5
2022-12-31T11:39:29.056Z,48.6
2022-12-31T11:40:24.657Z,48.6
2022-12-31T11:41:26.636Z,48.5
2022-12-31T11:42:28.651Z,48.2
2022-12-31T11:43:30.835Z,47.7
2022-12-31T11:44:32.549Z,47.6
2022-12-31T11:45:34.575Z,47.7
2022-12-31T11:46:36.640Z,47.7
2022-12-31T11:47:56.412Z,47.4
2022-12-31T11:48:40.581Z,47.9
2022-12-31T11:49:42.885Z,47.9
2022-12-31T11:50:44.655Z,47.7
2022-12-31T11:51:50.310Z,47.6
2022-12-31T11:52:49.139Z,47
2022-12-31T11:53:50.577Z,47.4
2022-12-31T11:54:52.594Z,47.9
2022-12-31T11:55:54.667Z,48.1
2022-12-31T11:56:56.643Z,48
2022-12-31T11:57:58.736Z,47.2
2022-12-31T11:59:03.620Z,46.7
2022-12-31T12:00:02.608Z,46.4
2022-12-31T12:01:05.305Z,46.3
2022-12-31T12:02:06.596Z,46.3
2022-12-31T12:03:08.671Z,46.2
2022-12-31T12:04:11.047Z,46.2
2022-12-31T12:05:12.495Z,46.1
2022-12-31T12:06:14.537Z,46.2
2022-12-31T12:07:16.508Z,46.1
2022-12-31T12:08:18.676Z,46.3
2022-12-31T12:09:20.508Z,46.3
2022-12-31T12:10:22.717Z,46.2
2022-12-31T12:11:24.697Z,45.7
2022-12-31T12:12:26.534Z,45.5
2022-12-31T12:13:28.799Z,45.4
2022-12-31T12:14:31.048Z,45.1
2022-12-31T12:15:32.509Z,45
2022-12-31T12:16:34.655Z,45.2
2022-12-31T12:17:36.717Z,45.3
2022-12-31T12:18:38.948Z,45.8
2022-12-31T12:19:40.736Z,46.2
2022-12-31T12:20:45.186Z,46.3
2022-12-31T12:21:46.578Z,46.2
2022-12-31T12:22:49.556Z,46.1
2022-12-31T12:23:50.612Z,45.9
2022-12-31T12:24:52.595Z,45.8
2022-12-31T12:25:55.277Z,45.7
2022-12-31T12:26:56.765Z,45.7
2022-12-31T12:27:58.594Z,46.2
2022-12-31T12:29:00.530Z,46.5
2022-12-31T12:30:03.251Z,46.9
2022-12-31T12:31:04.753Z,47.1
2022-12-31T12:32:06.626Z,47.2
2022-12-31T12:33:08.677Z,47.1
2022-12-31T12:34:10.666Z,47.1
2022-12-31T12:35:12.493Z,46.9
2022-12-31T12:36:13.478Z,47
2022-12-31T12:37:15.391Z,47.1
2022-12-31T12:38:16.739Z,46.5
2022-12-31T12:39:18.687Z,46.3
2022-12-31T12:40:20.557Z,46.8
2022-12-31T12:41:22.895Z,46.9
2022-12-31T12:42:24.680Z,46.6
2022-12-31T12:43:26.659Z,46.4
2022-12-31T12:44:28.635Z,46.3
2022-12-31T12:45:31.042Z,46.4
2022-12-31T12:46:32.666Z,46
2022-12-31T12:47:34.746Z,46.5
2022-12-31T12:48:36.716Z,46.7
2022-12-31T12:49:38.980Z,46.6
2022-12-31T12:50:40.735Z,46.7
2022-12-31T12:51:42.570Z,46.8
2022-12-31T12:52:44.426Z,47.1
2022-12-31T12:53:46.516Z,47.2
2022-12-31T12:54:48.600Z,47.3
2022-12-31T12:55:50.645Z,47.1
2022-12-31T12:56:52.636Z,47.3
2022-12-31T12:57:55.497Z,47.4
2022-12-31T12:58:56.766Z,47.4
2022-12-31T12:59:58.594Z,47.7
2022-12-31T13:01:00.660Z,48.1
2022-12-31T13:02:02.990Z,48.4
2022-12-31T13:03:04.740Z,48.5
2022-12-31T13:05:08.711Z,48.5
2022-12-31T13:06:10.573Z,48.5
2022-12-31T13:07:12.551Z,48.6
2022-12-31T13:08:14.612Z,48.5
2022-12-31T13:09:16.532Z,48.4
2022-12-31T13:10:18.639Z,48.3
2022-12-31T13:11:20.557Z,48.5
2022-12-31T13:12:22.662Z,48.6
2022-12-31T13:13:25.611Z,48.5
2022-12-31T13:14:26.707Z,48.6
2022-12-31T13:15:28.631Z,48.5
2022-12-31T13:16:30.701Z,48.6
2022-12-31T13:17:32.643Z,48.2
2022-12-31T13:18:34.591Z,48
2022-12-31T13:19:36.606Z,48.5
2022-12-31T13:20:38.607Z,48.6
2022-12-31T13:21:40.631Z,48.5
2022-12-31T13:22:42.525Z,48.3
2022-12-31T13:23:44.791Z,48.5
2022-12-31T13:24:47.208Z,48.6
2022-12-31T13:25:48.650Z,48.6
2022-12-31T13:26:50.546Z,48.7
2022-12-31T13:27:52.878Z,48.5
2022-12-31T13:28:54.683Z,48.6
2022-12-31T13:29:57.117Z,48.7
2022-12-31T13:31:03.404Z,48.7
2022-12-31T13:31:59.633Z,48.7
2022-12-31T13:33:01.609Z,48.7
2022-12-31T13:34:03.838Z,48.7
2022-12-31T13:35:05.508Z,48.1
2022-12-31T13:36:06.561Z,48.5
2022-12-31T13:37:08.698Z,48.9
2022-12-31T13:38:10.555Z,49.2
2022-12-31T13:39:12.798Z,49.3
2022-12-31T13:40:14.719Z,49.2
2022-12-31T13:41:16.677Z,49.3
2022-12-31T13:42:18.460Z,49.2
2022-12-31T13:43:19.496Z,49.2
2022-12-31T13:44:20.537Z,49.3
2022-12-31T13:45:22.017Z,49.4
2022-12-31T13:46:23.575Z,49.6
2022-12-31T13:47:25.800Z,49.7
2022-12-31T13:48:27.507Z,49.6
2022-12-31T13:49:28.559Z,49.7
2022-12-31T13:50:30.643Z,49.7
2022-12-31T13:51:32.746Z,49.6
2022-12-31T13:52:34.564Z,49.6
2022-12-31T13:53:36.691Z,49.6